Forside
METAR-TAF:

METAR-TAF

Lufthavne :

Mankato, Minnesota, USA

Breddekreds: 44-13N, længdekreds: 093-55W, højde: 311 m

Aktuelle vejr

Denne rapport blev lavet for 28 minutter siden, kl. 13:56 UTC
Vind 11 kt fra nordnordvest
Temperatur 7°C
Fugtighed 81%
Tryk 1021 hPa
Sigt: 16.1 km
skyfri

METAR: KMKT 201356Z AUTO 33011KT 10SM CLR 07/04 A3016 RMK AO2 SLP224 T00720039

Tid: 09:24 (14:24 UTC)

Vejrudsigter

Denne rapport blev lavet for 3 timer og 4 minutter siden, kl. 11:20 UTC
Foreløbig gælder fra 20 på 12 UTC til 21 på 12 UTC
Vind 8 kt fra nordnordvest
Sigt: 10 km
skyfri
Fra 20 på 1800 UTC
Vind 8 kt fra nordøst
Sigt: 10 km
Nogle få skyer i en højde af 25000 ft
Fra 21 på 0000 UTC
Vind 6 kt fra øst
Sigt: 10 km
Brudte skyer i en højde af 20000 ft
Fra 21 på 0600 UTC
Vind 8 kt fra øst
Sigt: 10 km
Overskyet i en højde af 12000 ft

TAF: KMKT 201120Z 2012/2112 34008KT P6SM SKC FM201800 04008KT P6SM FEW250 FM210000 09006KT P6SM BKN200 FM210600 09008KT P6SM OVC120

Vejrobservationer og prognoser fra mere end 4000 lufthavne (METAR og TAF).

De gule og røde prikker repræsenterer de meteorologiske stationer.

Flyt musen over at se navnet på stationen.

Så klik over at se vejr observationer og prognoser.

At skifte det kort: Klik på de grønne knapper med et sort kors for at zoome ind; på den grønne knap med en bindestreg for at zoome ud; eller på de grønne pile for tilstødende kort.


METAR-TAF: